Time;durP1;ratioP1;P1;durP2;ratioP2;P2;SDS_P1;SDS_P2;PMS_P1;PMS_P2;Temp;Humidity;BMP_temperature;BMP_pressure;BME280_temperature;BME280_humidity;BME280_pressure;Samples;Min_cycle;Max_cycle;Signal;HPM_P1;HPM_P2
2021/10/05 00:00:34;;;;;;;2.33;1.40;;;10.80;99.90;;;;;;4971396;28;20230;-68
2021/10/05 00:02:59;;;;;;;1.50;1.30;;;10.80;99.90;;;;;;4967435;28;20269;-68
2021/10/05 00:05:25;;;;;;;1.98;1.45;;;10.80;99.90;;;;;;4974887;28;20197;-70
2021/10/05 00:07:50;;;;;;;2.42;1.25;;;10.80;99.90;;;;;;4971426;28;20193;-67
2021/10/05 00:10:17;;;;;;;1.63;1.30;;;10.80;99.90;;;;;;4967336;28;20196;-67
2021/10/05 00:12:42;;;;;;;2.10;1.23;;;10.90;99.90;;;;;;4967193;28;20232;-71
2021/10/05 00:15:10;;;;;;;1.17;1.07;;;10.90;99.90;;;;;;4968379;28;20228;-67
2021/10/05 00:17:36;;;;;;;1.73;1.20;;;10.90;99.90;;;;;;4973440;28;20569;-67
2021/10/05 00:20:04;;;;;;;2.00;1.33;;;10.80;99.90;;;;;;4971065;28;20347;-69
2021/10/05 00:22:30;;;;;;;2.55;1.50;;;10.80;99.90;;;;;;4967282;28;20267;-67
2021/10/05 00:24:56;;;;;;;3.28;1.40;;;10.80;99.90;;;;;;4970869;28;20181;-68
2021/10/05 00:27:22;;;;;;;1.52;1.42;;;10.80;99.90;;;;;;4967729;28;20189;-67
2021/10/05 00:29:47;;;;;;;1.33;1.23;;;10.80;99.90;;;;;;4967283;28;20188;-69
2021/10/05 00:32:13;;;;;;;1.43;1.33;;;10.80;99.90;;;;;;4967130;28;20236;-71
2021/10/05 00:34:38;;;;;;;1.90;1.45;;;10.90;99.90;;;;;;4973276;28;20216;-66
2021/10/05 00:37:04;;;;;;;3.28;1.50;;;10.90;99.90;;;;;;4972837;28;20200;-68
2021/10/05 00:39:30;;;;;;;2.17;1.40;;;10.90;99.90;;;;;;4968032;28;20211;-68
2021/10/05 00:41:55;;;;;;;2.25;1.30;;;10.90;99.90;;;;;;4968790;28;20240;-67
2021/10/05 00:44:48;;;;;;;1.60;1.50;;;10.90;99.90;;;;;;4967959;28;20176;-68
2021/10/05 00:47:15;;;;;;;1.10;1.03;;;11.00;99.90;;;;;;4968832;28;20295;-68
2021/10/05 00:49:42;;;;;;;1.27;1.17;;;11.10;99.90;;;;;;4967844;28;20208;-71
2021/10/05 00:52:09;;;;;;;3.17;1.58;;;11.10;99.90;;;;;;4971188;28;20204;-69
2021/10/05 00:54:36;;;;;;;1.70;1.50;;;11.10;99.90;;;;;;4967285;28;20541;-68
2021/10/05 00:57:03;;;;;;;2.05;1.55;;;11.00;99.90;;;;;;4969914;28;20633;-67
2021/10/05 00:59:30;;;;;;;2.80;1.50;;;11.10;99.90;;;;;;4972381;28;20563;-68
2021/10/05 01:01:56;;;;;;;1.70;1.60;;;11.10;99.90;;;;;;4970026;28;20678;-69
2021/10/05 01:04:22;;;;;;;1.60;1.50;;;11.10;99.90;;;;;;4969738;28;20184;-66
2021/10/05 01:07:06;;;;;;;2.38;1.50;;;11.10;99.90;;;;;;4966854;28;20184;-69
2021/10/05 01:09:33;;;;;;;2.03;1.30;;;11.10;99.90;;;;;;4967134;28;20180;-67
2021/10/05 01:11:59;;;;;;;1.27;1.17;;;11.10;99.90;;;;;;4966082;28;20244;-68
2021/10/05 01:14:25;;;;;;;1.83;1.23;;;11.10;99.90;;;;;;4967051;28;20728;-69
2021/10/05 01:16:53;;;;;;;1.23;1.13;;;11.20;99.90;;;;;;4966984;28;20207;-68
2021/10/05 01:19:19;;;;;;;2.17;1.20;;;11.20;99.90;;;;;;4966864;28;20212;-67
2021/10/05 01:21:44;;;;;;;1.20;1.10;;;11.30;99.90;;;;;;4968897;28;20493;-71
2021/10/05 01:24:13;;;;;;;1.20;1.10;;;11.30;99.90;;;;;;4969229;28;20272;-69
2021/10/05 01:26:39;;;;;;;1.20;1.08;;;11.30;99.90;;;;;;4973256;28;20247;-67
2021/10/05 01:29:06;;;;;;;2.78;1.05;;;11.30;99.90;;;;;;4971669;28;20819;-70
2021/10/05 01:31:37;;;;;;;2.88;1.20;;;11.40;99.90;;;;;;4965610;28;20304;-70
2021/10/05 01:34:03;;;;;;;1.85;1.33;;;11.40;99.90;;;;;;4975579;28;20283;-70
2021/10/05 01:36:28;;;;;;;1.50;1.02;;;11.40;99.90;;;;;;4967366;28;20271;-69
2021/10/05 01:38:54;;;;;;;1.58;1.13;;;11.40;99.90;;;;;;4973058;28;20655;-68
2021/10/05 01:41:20;;;;;;;1.20;1.10;;;11.50;99.90;;;;;;4965150;28;20484;-69
2021/10/05 01:43:46;;;;;;;2.08;1.10;;;11.50;99.90;;;;;;4966653;28;20184;-68
2021/10/05 01:46:13;;;;;;;1.70;1.45;;;11.50;99.90;;;;;;4966427;28;20742;-67
2021/10/05 01:48:40;;;;;;;1.40;1.30;;;11.40;99.90;;;;;;4966389;28;20956;-67
2021/10/05 01:51:05;;;;;;;1.50;1.40;;;11.30;99.90;;;;;;4966596;28;20205;-67
2021/10/05 01:53:31;;;;;;;1.45;1.35;;;11.30;99.90;;;;;;4970739;28;20236;-69
2021/10/05 01:55:57;;;;;;;1.48;1.38;;;11.30;99.90;;;;;;4967253;28;20237;-66
2021/10/05 01:58:24;;;;;;;2.58;1.80;;;11.30;99.90;;;;;;4971210;28;20213;-68
2021/10/05 02:00:49;;;;;;;2.08;1.40;;;11.30;99.90;;;;;;4969850;28;20204;-67
2021/10/05 02:03:15;;;;;;;1.65;1.40;;;11.30;99.90;;;;;;4967893;28;20189;-67
2021/10/05 02:05:41;;;;;;;1.55;1.35;;;11.40;99.90;;;;;;4966140;28;20193;-69
2021/10/05 02:08:10;;;;;;;2.65;1.40;;;11.40;99.90;;;;;;4967336;28;20177;-67
2021/10/05 02:10:36;;;;;;;1.50;1.40;;;11.60;99.90;;;;;;4970515;28;20606;-68
2021/10/05 02:13:03;;;;;;;2.70;1.50;;;11.60;99.90;;;;;;4965226;28;20199;-68
2021/10/05 02:15:28;;;;;;;1.65;1.50;;;11.60;99.90;;;;;;4965694;28;20240;-69
2021/10/05 02:17:54;;;;;;;2.30;1.52;;;11.60;99.90;;;;;;4968215;28;20222;-68
2021/10/05 02:20:20;;;;;;;1.92;1.48;;;11.60;99.90;;;;;;4966544;28;20200;-68
2021/10/05 02:22:45;;;;;;;1.75;1.40;;;11.50;99.90;;;;;;4965268;28;20189;-69
2021/10/05 02:25:11;;;;;;;2.70;1.52;;;11.40;99.90;;;;;;4966881;28;20652;-68
2021/10/05 02:27:37;;;;;;;3.33;1.42;;;11.40;99.90;;;;;;4971992;28;20184;-68
2021/10/05 02:30:04;;;;;;;1.85;1.60;;;11.40;99.90;;;;;;4965622;28;20239;-68
2021/10/05 02:32:30;;;;;;;1.95;1.75;;;11.40;99.90;;;;;;4970696;28;20707;-69
2021/10/05 02:34:56;;;;;;;2.03;1.55;;;11.40;99.90;;;;;;4965831;28;20212;-67
2021/10/05 02:37:22;;;;;;;3.28;1.55;;;11.40;99.90;;;;;;4970811;28;20711;-70
2021/10/05 02:39:48;;;;;;;2.25;2.00;;;11.30;99.90;;;;;;4972449;28;20191;-70
2021/10/05 02:42:14;;;;;;;1.90;1.80;;;11.40;99.90;;;;;;4965849;28;20473;-69
2021/10/05 02:44:40;;;;;;;5.25;2.10;;;11.50;99.90;;;;;;4966944;28;20531;-69
2021/10/05 02:47:07;;;;;;;2.67;1.88;;;11.50;99.90;;;;;;4967570;28;20173;-69
2021/10/05 02:49:32;;;;;;;3.55;1.70;;;11.50;99.90;;;;;;4965552;28;20666;-68
2021/10/05 02:51:59;;;;;;;3.00;1.80;;;11.50;99.90;;;;;;4967540;28;20203;-68
2021/10/05 02:54:25;;;;;;;1.70;1.60;;;11.50;99.90;;;;;;4965267;28;20216;-70
2021/10/05 02:56:51;;;;;;;2.03;1.80;;;11.50;99.90;;;;;;4965270;28;20576;-68
2021/10/05 02:59:17;;;;;;;1.75;1.65;;;11.50;99.90;;;;;;4966027;28;20212;-70
2021/10/05 03:01:43;;;;;;;2.20;1.80;;;11.60;99.90;;;;;;4968713;28;20211;-65
2021/10/05 03:04:10;;;;;;;2.05;1.85;;;11.60;99.90;;;;;;4965804;28;20248;-67
2021/10/05 03:06:35;;;;;;;3.33;2.10;;;11.60;99.90;;;;;;4967311;28;20613;-69
2021/10/05 03:09:01;;;;;;;2.90;2.00;;;11.50;99.90;;;;;;4971280;28;20195;-67
2021/10/05 03:11:27;;;;;;;2.38;2.08;;;11.40;99.90;;;;;;4964188;28;20287;-70
2021/10/05 03:13:52;;;;;;;2.03;1.83;;;11.40;99.90;;;;;;4965075;28;20189;-71
2021/10/05 03:16:18;;;;;;;2.45;1.85;;;11.50;99.90;;;;;;4964996;28;20260;-68
2021/10/05 03:18:45;;;;;;;2.03;1.85;;;11.50;99.90;;;;;;4969040;28;20172;-69
2021/10/05 03:21:11;;;;;;;2.33;1.90;;;11.40;99.90;;;;;;4967198;28;20224;-69
2021/10/05 03:23:38;;;;;;;2.00;1.80;;;11.40;99.90;;;;;;4964510;28;20594;-68
2021/10/05 03:26:04;;;;;;;2.33;2.13;;;11.40;99.90;;;;;;4970740;28;20216;-67
2021/10/05 03:28:31;;;;;;;2.40;1.67;;;11.40;99.90;;;;;;4965031;28;20248;-67
2021/10/05 03:30:58;;;;;;;2.65;1.55;;;11.40;99.90;;;;;;4964876;28;20227;-68
2021/10/05 03:33:23;;;;;;;1.92;1.80;;;11.40;99.90;;;;;;4971550;28;20668;-69
2021/10/05 03:35:49;;;;;;;2.92;2.10;;;11.40;99.90;;;;;;4965515;28;20208;-67
2021/10/05 03:38:15;;;;;;;2.60;1.90;;;11.40;99.90;;;;;;4965065;28;20193;-68
2021/10/05 03:40:40;;;;;;;1.95;1.80;;;11.40;99.90;;;;;;4964611;28;20751;-67
2021/10/05 03:43:06;;;;;;;2.97;1.95;;;11.40;99.90;;;;;;4964442;28;20177;-67
2021/10/05 03:45:31;;;;;;;2.58;2.28;;;11.40;99.90;;;;;;4966000;28;20268;-70
2021/10/05 03:47:57;;;;;;;2.30;2.10;;;11.40;99.90;;;;;;4975255;28;20180;-68
2021/10/05 03:50:23;;;;;;;2.20;1.98;;;11.40;99.90;;;;;;4964768;28;20189;-67
2021/10/05 03:52:51;;;;;;;2.80;2.47;;;11.40;99.90;;;;;;4964117;28;20188;-68
2021/10/05 03:55:17;;;;;;;2.78;2.50;;;11.30;99.90;;;;;;4965167;28;20296;-67
2021/10/05 03:57:42;;;;;;;2.42;2.00;;;11.30;99.90;;;;;;4964386;28;20275;-69
2021/10/05 04:00:09;;;;;;;6.00;2.42;;;11.30;99.90;;;;;;4966543;28;20204;-67
2021/10/05 04:02:35;;;;;;;3.35;2.72;;;11.40;99.90;;;;;;4967127;28;20204;-69
2021/10/05 04:05:01;;;;;;;2.65;2.45;;;11.30;99.90;;;;;;4972125;28;20188;-70
2021/10/05 04:07:26;;;;;;;3.45;2.95;;;11.30;99.90;;;;;;4967952;28;20189;-68
2021/10/05 04:09:52;;;;;;;4.18;3.28;;;11.20;99.90;;;;;;4971145;28;20703;-67
2021/10/05 04:12:18;;;;;;;3.87;2.87;;;11.20;99.90;;;;;;4968258;28;20571;-69
2021/10/05 04:14:44;;;;;;;3.08;2.72;;;11.20;99.90;;;;;;4967976;28;20208;-70
2021/10/05 04:17:10;;;;;;;3.00;2.70;;;11.20;99.90;;;;;;4966834;28;20200;-67
2021/10/05 04:19:36;;;;;;;3.72;3.03;;;11.20;99.90;;;;;;4968019;28;20621;-69
2021/10/05 04:22:02;;;;;;;3.35;2.70;;;11.20;99.90;;;;;;4969874;28;20201;-69
2021/10/05 04:24:28;;;;;;;3.95;3.13;;;11.30;99.90;;;;;;4968132;28;20213;-70
2021/10/05 04:26:54;;;;;;;3.08;2.78;;;11.20;99.90;;;;;;4970764;28;20589;-68
2021/10/05 04:29:20;;;;;;;3.28;2.65;;;11.20;99.90;;;;;;4968679;28;20200;-68
2021/10/05 04:31:46;;;;;;;3.97;2.60;;;11.20;99.90;;;;;;4965337;28;20220;-70
2021/10/05 04:34:12;;;;;;;3.88;3.17;;;11.20;99.90;;;;;;4967955;28;20205;-67
2021/10/05 04:36:37;;;;;;;3.30;3.00;;;11.20;99.90;;;;;;4973786;28;20190;-69
2021/10/05 04:39:03;;;;;;;4.63;2.83;;;11.20;99.90;;;;;;4968098;28;20184;-70
2021/10/05 04:41:29;;;;;;;2.75;2.53;;;11.30;99.90;;;;;;4971078;28;20236;-69
2021/10/05 04:43:55;;;;;;;3.85;2.38;;;11.20;99.90;;;;;;4971524;28;20216;-67
2021/10/05 04:46:20;;;;;;;4.60;2.40;;;11.20;99.90;;;;;;4967713;28;20716;-67
2021/10/05 04:48:46;;;;;;;3.88;2.58;;;11.20;99.90;;;;;;4967384;28;20195;-67
2021/10/05 04:51:11;;;;;;;3.95;2.70;;;11.20;99.90;;;;;;4968652;28;20200;-69
2021/10/05 04:53:37;;;;;;;5.45;3.22;;;11.20;99.90;;;;;;4971592;28;20184;-66
2021/10/05 04:56:03;;;;;;;5.40;3.70;;;11.20;99.90;;;;;;4967443;28;20619;-68
2021/10/05 04:58:29;;;;;;;5.45;3.65;;;11.20;99.90;;;;;;4967021;28;20447;-69
2021/10/05 05:00:55;;;;;;;4.05;3.15;;;11.30;99.90;;;;;;4967085;28;20275;-70
2021/10/05 05:03:22;;;;;;;5.53;3.83;;;11.20;99.90;;;;;;4969556;28;20234;-67
2021/10/05 05:05:48;;;;;;;4.85;4.13;;;11.20;99.90;;;;;;4971041;28;20188;-66
2021/10/05 05:08:14;;;;;;;5.63;3.80;;;11.20;99.90;;;;;;4968760;28;20203;-68
2021/10/05 05:10:39;;;;;;;4.78;3.95;;;11.20;99.90;;;;;;4971184;28;20259;-69
2021/10/05 05:13:05;;;;;;;6.35;4.30;;;11.20;99.90;;;;;;4966532;28;20603;-70
2021/10/05 05:15:30;;;;;;;6.77;4.60;;;11.30;99.90;;;;;;4966523;28;20983;-71
2021/10/05 05:17:56;;;;;;;6.78;4.93;;;11.30;99.90;;;;;;4966891;28;20181;-67
2021/10/05 05:20:22;;;;;;;5.68;4.43;;;11.30;99.90;;;;;;4971912;28;20185;-68
2021/10/05 05:22:47;;;;;;;7.05;5.07;;;11.30;99.90;;;;;;4966215;28;20640;-68
2021/10/05 05:25:13;;;;;;;7.22;5.18;;;11.30;99.90;;;;;;4968720;28;20267;-68
2021/10/05 05:27:40;;;;;;;6.72;5.28;;;11.30;99.90;;;;;;4967360;28;20520;-65
2021/10/05 05:30:06;;;;;;;7.87;6.23;;;11.30;99.90;;;;;;4967073;28;20220;-64
2021/10/05 05:32:32;;;;;;;8.63;7.00;;;11.30;99.90;;;;;;4965415;28;20683;-69
2021/10/05 05:34:58;;;;;;;10.02;7.53;;;11.30;99.90;;;;;;4966659;28;20215;-67
2021/10/05 05:37:24;;;;;;;10.30;7.35;;;11.30;99.90;;;;;;4959173;28;20263;-68
2021/10/05 05:39:50;;;;;;;9.10;7.50;;;11.30;99.90;;;;;;4969986;28;20172;-65
2021/10/05 05:42:16;;;;;;;10.25;7.97;;;11.30;99.90;;;;;;4969941;28;20215;-67
2021/10/05 05:44:41;;;;;;;9.93;7.90;;;11.30;99.90;;;;;;4974786;28;21188;-63
2021/10/05 05:47:07;;;;;;;12.68;9.77;;;11.30;99.90;;;;;;4973623;28;20515;-64
2021/10/05 05:49:33;;;;;;;14.30;9.98;;;11.30;99.90;;;;;;4970210;28;20283;-67
2021/10/05 05:51:59;;;;;;;11.55;8.90;;;11.30;99.90;;;;;;4967471;28;20213;-65
2021/10/05 05:54:25;;;;;;;14.52;10.48;;;11.30;99.90;;;;;;4973934;28;20573;-64
2021/10/05 05:56:51;;;;;;;15.60;9.93;;;11.30;99.90;;;;;;4975434;28;20184;-65
2021/10/05 05:59:16;;;;;;;14.95;11.05;;;11.30;99.90;;;;;;4971162;28;20193;-68
2021/10/05 06:01:42;;;;;;;15.88;10.98;;;11.30;99.90;;;;;;4970264;28;20207;-66
2021/10/05 06:04:08;;;;;;;15.17;11.53;;;11.30;99.90;;;;;;4972041;28;20184;-64
2021/10/05 06:06:34;;;;;;;16.13;11.98;;;11.30;99.90;;;;;;4972716;28;20597;-64
2021/10/05 06:09:01;;;;;;;14.90;11.50;;;11.40;99.90;;;;;;4969230;28;20193;-66
2021/10/05 06:11:31;;;;;;;17.10;12.87;;;11.30;99.90;;;;;;4964661;28;20215;-68
2021/10/05 06:13:56;;;;;;;16.03;12.07;;;11.30;99.90;;;;;;4973520;28;20189;-66
2021/10/05 06:16:22;;;;;;;17.52;13.30;;;11.30;99.90;;;;;;4972467;28;20179;-66
2021/10/05 06:18:48;;;;;;;18.37;14.40;;;11.30;99.90;;;;;;4972346;28;20574;-66
2021/10/05 06:21:13;;;;;;;20.48;14.05;;;11.30;99.90;;;;;;4970800;28;20228;-67
2021/10/05 06:23:40;;;;;;;19.88;13.45;;;11.30;99.90;;;;;;4975106;28;20185;-69
2021/10/05 06:26:06;;;;;;;24.27;14.10;;;11.30;99.90;;;;;;4972630;28;20189;-64
2021/10/05 06:28:32;;;;;;;19.67;14.07;;;11.30;99.90;;;;;;4968335;28;20195;-66
2021/10/05 06:30:58;;;;;;;19.75;13.27;;;11.40;99.90;;;;;;4971079;28;20318;-67
2021/10/05 06:33:24;;;;;;;19.33;13.55;;;11.30;99.90;;;;;;4969283;28;20211;-67
2021/10/05 06:35:50;;;;;;;18.27;13.00;;;11.40;99.90;;;;;;4970693;28;20661;-66
2021/10/05 06:38:16;;;;;;;18.02;12.35;;;11.40;99.90;;;;;;4974096;28;20185;-68
2021/10/05 06:40:42;;;;;;;16.50;11.70;;;11.30;99.90;;;;;;4976699;28;20208;-65
2021/10/05 06:43:08;;;;;;;16.63;11.90;;;11.40;99.90;;;;;;4967632;28;20240;-65
2021/10/05 06:45:34;;;;;;;18.13;12.38;;;11.30;99.90;;;;;;4965046;28;20181;-67
2021/10/05 06:48:00;;;;;;;14.33;10.87;;;11.30;99.90;;;;;;4962957;28;20594;-65
2021/10/05 06:50:27;;;;;;;16.08;12.80;;;11.40;99.90;;;;;;4974458;28;20271;-66
2021/10/05 06:52:53;;;;;;;14.77;10.85;;;11.40;99.90;;;;;;4964028;28;20173;-66
2021/10/05 06:55:19;;;;;;;13.70;10.65;;;11.40;99.90;;;;;;4964897;28;20220;-68
2021/10/05 06:57:45;;;;;;;15.70;10.75;;;11.40;99.90;;;;;;4968012;28;20191;-65
2021/10/05 07:00:18;;;;;;;17.00;11.55;;;11.40;99.90;;;;;;4971691;28;20181;-64
2021/10/05 07:02:46;;;;;;;16.60;10.98;;;11.40;99.90;;;;;;4968480;28;20185;-70
2021/10/05 07:05:13;;;;;;;17.48;12.30;;;11.50;99.90;;;;;;4964748;28;20263;-69
2021/10/05 07:07:41;;;;;;;15.68;11.27;;;11.60;99.90;;;;;;4965954;28;20196;-64
2021/10/05 07:10:08;;;;;;;17.67;12.05;;;11.50;99.90;;;;;;4972340;28;20650;-68
2021/10/05 07:12:34;;;;;;;15.25;11.20;;;11.50;99.90;;;;;;4963972;28;20205;-67
2021/10/05 07:15:01;;;;;;;14.15;11.23;;;11.50;99.90;;;;;;4964881;28;20209;-67
2021/10/05 07:17:27;;;;;;;15.20;10.48;;;11.50;99.90;;;;;;4964649;28;20177;-67
2021/10/05 07:19:52;;;;;;;13.20;9.80;;;11.50;99.90;;;;;;4966066;28;20510;-64
2021/10/05 07:22:18;;;;;;;13.00;8.38;;;11.60;99.90;;;;;;4967431;28;20295;-69
2021/10/05 07:24:44;;;;;;;11.40;8.52;;;11.60;99.90;;;;;;4971799;28;20192;-67
2021/10/05 07:27:10;;;;;;;9.68;7.00;;;11.50;99.90;;;;;;4970538;28;20188;-69
2021/10/05 07:29:35;;;;;;;9.82;6.80;;;11.50;99.90;;;;;;4967035;28;20221;-66
2021/10/05 07:32:01;;;;;;;9.05;6.63;;;11.50;99.90;;;;;;4963542;28;20684;-70
2021/10/05 07:34:27;;;;;;;9.27;6.15;;;11.50;99.90;;;;;;4970350;28;20208;-66
2021/10/05 07:36:52;;;;;;;10.02;5.70;;;11.60;99.90;;;;;;4964955;28;20181;-66
2021/10/05 07:39:18;;;;;;;7.43;5.22;;;11.60;99.90;;;;;;4972816;28;20189;-68
2021/10/05 07:41:43;;;;;;;7.22;5.13;;;11.60;99.90;;;;;;4967415;28;20213;-68
2021/10/05 07:44:11;;;;;;;7.45;5.50;;;11.60;99.90;;;;;;4968542;28;20196;-67
2021/10/05 07:46:38;;;;;;;8.30;5.85;;;11.60;99.90;;;;;;4967927;28;20243;-68
2021/10/05 07:49:03;;;;;;;8.15;6.13;;;11.60;99.90;;;;;;4968316;28;20706;-70
2021/10/05 07:51:29;;;;;;;7.18;5.82;;;11.60;99.90;;;;;;4968280;28;20204;-69
2021/10/05 07:53:55;;;;;;;8.95;5.78;;;11.60;99.90;;;;;;4968111;28;20185;-65
2021/10/05 07:56:20;;;;;;;8.93;6.05;;;11.70;99.90;;;;;;4967189;28;20244;-68
2021/10/05 07:58:46;;;;;;;7.78;5.03;;;11.70;99.90;;;;;;4979459;28;20290;-66
2021/10/05 08:01:11;;;;;;;6.50;5.43;;;11.70;99.90;;;;;;4979457;28;20307;-66
2021/10/05 08:03:37;;;;;;;7.38;5.38;;;11.80;99.90;;;;;;4973384;28;20181;-64
2021/10/05 08:06:03;;;;;;;6.20;5.00;;;11.80;99.90;;;;;;4968321;28;20185;-65
2021/10/05 08:08:28;;;;;;;6.80;5.10;;;11.80;99.90;;;;;;4968496;28;20538;-67
2021/10/05 08:10:54;;;;;;;7.22;5.30;;;11.80;99.90;;;;;;4968682;28;20208;-68
2021/10/05 08:13:20;;;;;;;8.00;5.05;;;11.80;99.90;;;;;;4968054;28;20298;-68
2021/10/05 08:15:46;;;;;;;7.07;5.18;;;11.80;99.90;;;;;;4968041;28;20271;-68
2021/10/05 08:18:12;;;;;;;6.50;5.07;;;11.90;99.90;;;;;;4968205;28;20180;-66
2021/10/05 08:20:39;;;;;;;8.23;5.28;;;12.00;99.90;;;;;;4969040;28;20192;-67
2021/10/05 08:23:04;;;;;;;9.27;7.10;;;11.90;99.90;;;;;;4973233;28;20555;-64
2021/10/05 08:25:30;;;;;;;15.30;12.50;;;11.90;99.90;;;;;;4972435;28;20188;-65
2021/10/05 08:27:56;;;;;;;8.02;5.93;;;12.10;99.90;;;;;;4972756;28;20590;-65
2021/10/05 08:30:22;;;;;;;6.63;5.10;;;12.30;99.90;;;;;;4970735;28;20647;-66
2021/10/05 08:32:48;;;;;;;7.28;5.07;;;12.40;99.90;;;;;;4967014;28;20203;-67
2021/10/05 08:35:13;;;;;;;6.78;4.97;;;12.40;99.90;;;;;;4968877;28;20220;-69
2021/10/05 08:37:40;;;;;;;6.40;5.40;;;12.40;99.90;;;;;;4971340;28;20188;-65
2021/10/05 08:40:08;;;;;;;6.68;5.05;;;12.50;99.90;;;;;;4970426;28;20625;-67
2021/10/05 08:42:34;;;;;;;6.68;4.82;;;12.50;99.90;;;;;;4965246;28;20244;-68
2021/10/05 08:45:00;;;;;;;7.53;5.32;;;12.60;99.90;;;;;;4968166;28;20181;-70
2021/10/05 08:47:28;;;;;;;6.63;4.93;;;12.70;99.90;;;;;;4969221;28;20661;-67
2021/10/05 08:49:54;;;;;;;8.45;5.57;;;12.70;99.90;;;;;;4966864;28;20263;-66
2021/10/05 08:52:20;;;;;;;6.57;4.82;;;12.80;99.90;;;;;;4967650;28;20620;-68
2021/10/05 08:54:46;;;;;;;6.05;4.65;;;12.90;99.90;;;;;;4967737;28;20213;-68
2021/10/05 08:57:12;;;;;;;6.57;4.97;;;12.90;99.90;;;;;;4967685;28;20180;-68
2021/10/05 08:59:38;;;;;;;6.47;4.30;;;13.00;99.90;;;;;;4976403;28;20184;-68
2021/10/05 09:02:15;;;;;;;4.97;4.15;;;13.10;99.90;;;;;;4969064;28;20278;-65
2021/10/05 09:04:45;;;;;;;4.72;3.72;;;13.10;99.90;;;;;;4967565;28;20223;-68
2021/10/05 09:07:24;;;;;;;5.05;3.95;;;13.00;99.90;;;;;;4967619;28;20199;-67
2021/10/05 09:09:53;;;;;;;4.10;3.42;;;13.00;99.90;;;;;;4977599;28;20641;-65
2021/10/05 09:12:30;;;;;;;4.22;3.50;;;12.90;99.90;;;;;;4966731;28;20287;-66
2021/10/05 09:14:56;;;;;;;5.68;3.70;;;13.00;99.90;;;;;;4967017;28;20239;-69
2021/10/05 09:17:23;;;;;;;4.88;4.03;;;12.90;99.90;;;;;;4967306;28;20360;-67
2021/10/05 09:19:50;;;;;;;5.05;4.13;;;12.90;99.90;;;;;;4968218;28;20181;-67
2021/10/05 09:22:18;;;;;;;4.88;3.72;;;12.90;99.90;;;;;;4966452;28;20217;-68
2021/10/05 09:24:47;;;;;;;4.03;3.58;;;13.00;99.90;;;;;;4966880;28;20187;-69
2021/10/05 09:27:14;;;;;;;5.13;4.28;;;13.00;99.90;;;;;;4968176;28;20539;-67
2021/10/05 09:29:40;;;;;;;5.85;4.90;;;13.00;99.90;;;;;;4966895;28;20183;-66
2021/10/05 09:32:11;;;;;;;9.10;7.93;;;13.00;99.90;;;;;;4966086;28;20231;-66
2021/10/05 09:34:55;;;;;;;13.68;11.80;;;13.00;99.90;;;;;;4968959;28;20205;-70
2021/10/05 09:37:32;;;;;;;17.73;14.73;;;13.00;99.90;;;;;;4966811;28;20185;-69
2021/10/05 09:40:04;;;;;;;21.98;18.48;;;13.10;99.90;;;;;;4966517;28;20624;-67
2021/10/05 09:42:34;;;;;;;20.27;17.30;;;13.30;99.90;;;;;;4965362;28;20196;-67
2021/10/05 09:45:09;;;;;;;20.58;17.98;;;13.40;99.90;;;;;;4966681;28;20651;-67
2021/10/05 09:47:46;;;;;;;21.17;17.80;;;13.50;99.90;;;;;;4966524;28;20527;-68
2021/10/05 09:50:24;;;;;;;18.48;16.58;;;13.70;99.90;;;;;;4965071;28;20207;-68
2021/10/05 09:52:58;;;;;;;19.90;17.58;;;13.70;99.90;;;;;;4966768;28;20700;-66
2021/10/05 09:55:30;;;;;;;18.33;16.40;;;13.80;99.90;;;;;;4966884;28;20266;-68
2021/10/05 09:57:56;;;;;;;21.42;18.55;;;13.70;99.90;;;;;;4973636;28;20179;-66
2021/10/05 10:00:30;;;;;;;21.88;18.23;;;13.60;99.90;;;;;;4973800;28;20240;-67
2021/10/05 10:02:56;;;;;;;18.10;16.13;;;13.50;99.90;;;;;;4969020;28;20629;-68
2021/10/05 10:05:25;;;;;;;18.05;15.55;;;13.60;99.90;;;;;;4973653;28;20552;-66
2021/10/05 10:07:56;;;;;;;17.08;14.65;;;13.60;99.90;;;;;;4970713;28;20625;-65
2021/10/05 10:10:24;;;;;;;17.85;15.82;;;13.50;99.90;;;;;;4966638;28;20247;-66
2021/10/05 10:12:54;;;;;;;17.95;16.05;;;13.40;99.90;;;;;;4966517;28;20385;-69
2021/10/05 10:15:23;;;;;;;16.02;14.32;;;13.20;99.90;;;;;;4966362;28;20217;-70
2021/10/05 10:17:49;;;;;;;16.25;14.48;;;13.10;99.90;;;;;;4967132;28;20651;-66
2021/10/05 10:20:27;;;;;;;14.15;12.65;;;13.10;99.90;;;;;;4968284;28;20192;-68
2021/10/05 10:22:53;;;;;;;15.27;13.15;;;13.10;99.90;;;;;;4971406;28;20173;-69
2021/10/05 10:25:28;;;;;;;14.50;12.85;;;13.10;99.90;;;;;;4968051;28;20189;-67
2021/10/05 10:27:56;;;;;;;15.93;14.20;;;13.10;99.90;;;;;;4965840;28;20195;-69
2021/10/05 10:30:26;;;;;;;15.65;13.95;;;13.00;99.90;;;;;;4969065;28;20184;-66
2021/10/05 10:33:00;;;;;;;16.70;14.00;;;13.10;99.90;;;;;;4965014;28;20200;-70
2021/10/05 10:35:26;;;;;;;14.88;13.20;;;13.10;99.90;;;;;;4972303;28;20660;-68
2021/10/05 10:37:53;;;;;;;15.35;13.70;;;13.20;99.90;;;;;;4969578;28;20212;-67
2021/10/05 10:40:35;;;;;;;12.93;11.15;;;13.30;99.90;;;;;;4966045;28;20288;-68
2021/10/05 10:43:15;;;;;;;22.35;11.52;;;13.40;99.90;;;;;;4964939;28;20183;-67
2021/10/05 10:45:46;;;;;;;12.07;10.88;;;13.50;99.90;;;;;;4972730;28;20243;-67
2021/10/05 10:48:11;;;;;;;11.93;9.95;;;13.50;99.90;;;;;;4973425;28;20260;-67
2021/10/05 10:50:38;;;;;;;11.35;10.02;;;13.40;99.90;;;;;;4969891;28;20272;-68
2021/10/05 10:53:07;;;;;;;11.05;9.73;;;13.40;99.90;;;;;;4968537;28;20196;-64
2021/10/05 10:55:35;;;;;;;9.25;8.35;;;13.50;99.90;;;;;;4965978;28;20219;-68
2021/10/05 10:58:02;;;;;;;9.70;8.70;;;13.60;99.90;;;;;;4965115;28;20191;-67
2021/10/05 11:00:32;;;;;;;10.77;9.63;;;13.70;99.90;;;;;;4965228;28;20177;-68
2021/10/05 11:03:03;;;;;;;11.02;9.80;;;13.90;99.90;;;;;;4964435;28;20752;-68
2021/10/05 11:05:35;;;;;;;10.23;8.82;;;14.00;99.90;;;;;;4965659;28;20578;-68
2021/10/05 11:08:10;;;;;;;10.45;8.98;;;14.20;99.90;;;;;;4968728;28;20582;-68
2021/10/05 11:10:36;;;;;;;10.85;9.65;;;14.30;99.90;;;;;;4965442;28;20188;-66
2021/10/05 11:13:06;;;;;;;10.30;9.23;;;14.30;99.90;;;;;;4969337;28;20180;-69
2021/10/05 11:15:36;;;;;;;9.48;8.48;;;14.40;99.90;;;;;;4969292;28;20557;-68
2021/10/05 11:18:13;;;;;;;9.65;8.65;;;14.30;99.90;;;;;;4975935;28;20181;-68
2021/10/05 11:21:02;;;;;;;8.93;8.02;;;14.30;99.90;;;;;;4978985;28;20191;-69
2021/10/05 11:23:28;;;;;;;8.20;7.40;;;14.30;99.90;;;;;;4972222;28;20543;-70
2021/10/05 11:25:58;;;;;;;7.68;6.95;;;14.20;99.90;;;;;;4969398;28;20191;-65
2021/10/05 11:28:27;;;;;;;6.47;5.88;;;14.30;99.90;;;;;;4970792;28;20527;-68
2021/10/05 11:31:05;;;;;;;5.88;5.28;;;14.30;99.90;;;;;;4969080;28;20275;-69
2021/10/05 11:33:37;;;;;;;5.45;4.95;;;14.40;99.90;;;;;;4967838;28;20181;-70
2021/10/05 11:36:12;;;;;;;5.03;4.60;;;14.50;99.90;;;;;;4969156;28;20200;-67
2021/10/05 11:38:43;;;;;;;4.13;3.72;;;14.60;99.90;;;;;;4970199;28;20187;-67
2021/10/05 11:41:09;;;;;;;4.47;4.07;;;14.70;99.90;;;;;;4968608;28;20243;-66
2021/10/05 11:43:39;;;;;;;2.90;2.70;;;14.90;99.90;;;;;;4973721;28;20709;-71
2021/10/05 11:46:15;;;;;;;3.45;3.15;;;15.10;99.90;;;;;;4969451;28;20246;-67
2021/10/05 11:48:46;;;;;;;2.97;2.78;;;15.10;99.90;;;;;;4962145;28;20184;-67
2021/10/05 11:51:13;;;;;;;2.60;2.40;;;15.00;99.90;;;;;;4974979;28;20311;-69
2021/10/05 11:53:40;;;;;;;3.20;2.90;;;14.90;99.90;;;;;;4976845;28;20185;-68
2021/10/05 11:56:11;;;;;;;3.10;2.85;;;14.80;99.90;;;;;;4977975;28;20686;-66
2021/10/05 11:58:54;;;;;;;2.95;2.75;;;15.00;99.90;;;;;;4974886;28;20232;-68
2021/10/05 12:01:25;;;;;;;5.55;5.05;;;15.10;99.90;;;;;;4967468;28;20254;-67
2021/10/05 12:04:07;;;;;;;6.30;5.70;;;15.00;99.90;;;;;;4967934;28;20180;-66
2021/10/05 12:06:39;;;;;;;9.00;8.10;;;14.90;99.90;;;;;;4968581;28;20176;-67
2021/10/05 12:09:06;;;;;;;9.48;8.57;;;14.90;99.90;;;;;;4973831;28;20185;-69
2021/10/05 12:11:44;;;;;;;15.93;14.32;;;15.00;99.90;;;;;;4967500;28;20199;-66
2021/10/05 12:14:14;;;;;;;19.17;17.30;;;15.10;99.90;;;;;;4967645;28;20268;-67
2021/10/05 12:16:41;;;;;;;15.77;14.27;;;15.00;99.90;;;;;;4968470;28;20213;-66
2021/10/05 12:19:07;;;;;;;16.92;15.23;;;15.00;99.90;;;;;;4967668;28;20603;-71
2021/10/05 12:21:33;;;;;;;15.55;14.05;;;14.80;99.90;;;;;;4969072;28;20208;-67
2021/10/05 12:24:01;;;;;;;18.05;16.20;;;14.70;99.90;;;;;;4970258;28;20181;-68
2021/10/05 12:26:27;;;;;;;15.07;13.57;;;14.50;99.90;;;;;;4967805;28;20185;-69
2021/10/05 12:29:06;;;;;;;14.40;12.93;;;14.40;99.90;;;;;;4967700;28;20223;-65
2021/10/05 12:31:33;;;;;;;12.55;11.35;;;14.50;99.90;;;;;;4968683;28;20213;-68
2021/10/05 12:34:07;;;;;;;14.00;12.57;;;14.60;99.90;;;;;;4968527;28;20193;-69
2021/10/05 12:36:35;;;;;;;14.05;12.60;;;14.50;99.90;;;;;;4968460;28;20608;-66
2021/10/05 12:39:16;;;;;;;10.00;9.00;;;14.60;99.90;;;;;;4972398;28;20268;-68
2021/10/05 12:41:53;;;;;;;10.18;9.18;;;14.70;99.90;;;;;;4970929;28;20205;-69